Loudon, New Hampshire
Current Conditions -  °F | °C
As of 1:51 AM on Sunday 23 Nov 2014 (Local Time) from KCON Reporting Station
Overcast Overcast  
Wind Chill:   Ceiling: 3200
Heat Index:   Visibility: 10mi
Dew Point: -6°   Wind: 0mph
Humidity: 55%   Direction: NA
Pressure: 30.02"   Gusts: NA
Location:  43.18°N, 71.56°W
Report Text: KCON 230651Z AUTO 00000KT 10SM OVC032 02/M06 A3002 RMK AO2 SLP170 T00221061
Loading
Personal Weather Stations






























Interactive Weather Map New forecast layout! Learn more

10-Day Weather Forecast

Advertisements
Track Severe Weather on mobile